Time;durP1;ratioP1;P1;durP2;ratioP2;P2;SDS_P1;SDS_P2;PMS_P1;PMS_P2;Temp;Humidity;BMP_temperature;BMP_pressure;BME280_temperature;BME280_humidity;BME280_pressure;Samples;Min_cycle;Max_cycle;Signal;HPM_P1;HPM_P2
2023/01/11 00:01:09;;;;;;;;;;;2.90;99.90;;;;;;5000065;28;19925;-72
2023/01/11 00:03:38;;;;;;;;;;;2.90;99.90;;;;;;5023862;28;20432;-72
2023/01/11 00:06:09;;;;;;;;;;;2.90;99.90;;;;;;5025654;28;19926;-72
2023/01/11 00:08:40;;;;;;;;;;;2.90;99.90;;;;;;5035010;28;20359;-72
2023/01/11 00:11:13;;;;;;;;;;;2.90;99.90;;;;;;5016997;28;20008;-72
2023/01/11 00:13:42;;;;;;;;;;;2.90;99.90;;;;;;5007755;28;20434;-72
2023/01/11 00:16:12;;;;;;;;;;;3.00;99.90;;;;;;4999604;28;20274;-72
2023/01/11 00:18:40;;;;;;;;;;;3.00;99.90;;;;;;4978032;28;19956;-73
2023/01/11 00:21:09;;;;;;;;;;;3.00;99.90;;;;;;5007678;28;19929;-72
2023/01/11 00:23:38;;;;;;;;;;;3.00;99.90;;;;;;5021140;28;19929;-72
2023/01/11 00:26:07;;;;;;;;;;;3.00;99.90;;;;;;5016915;28;19964;-72
2023/01/11 00:28:35;;;;;;;;;;;3.10;99.90;;;;;;5018454;28;20002;-72
2023/01/11 00:31:04;;;;;;;;;;;3.10;99.90;;;;;;5014730;28;19941;-72
2023/01/11 00:33:33;;;;;;;;;;;3.20;99.90;;;;;;5023916;28;20341;-72
2023/01/11 00:36:02;;;;;;;;;;;3.20;99.90;;;;;;5007365;28;20020;-72
2023/01/11 00:38:42;;;;;;;;;;;3.20;99.90;;;;;;4975891;28;19926;-72
2023/01/11 00:49:31;;;;;;;;;;;3.40;99.90;;;;;;5020054;28;19925;-72
2023/01/11 00:52:00;;;;;;;;;;;3.40;99.90;;;;;;5001057;28;19929;-72
2023/01/11 00:54:29;;;;;;;;;;;3.50;99.90;;;;;;4998831;28;19946;-72
2023/01/11 00:56:57;;;;;;;;;;;3.50;99.90;;;;;;5011695;28;19930;-72
2023/01/11 00:59:25;;;;;;;;;;;3.50;99.90;;;;;;5013919;28;19929;-72
2023/01/11 01:01:59;;;;;;;;;;;3.50;99.90;;;;;;5024367;28;20424;-72
2023/01/11 01:04:28;;;;;;;;;;;3.60;99.90;;;;;;4993897;28;19977;-72
2023/01/11 01:06:56;;;;;;;;;;;3.60;99.90;;;;;;4978005;28;19925;-72
2023/01/11 01:09:24;;;;;;;;;;;3.60;99.90;;;;;;5000406;28;20386;-72
2023/01/11 01:11:52;;;;;;;;;;;3.60;99.90;;;;;;5001312;28;19930;-72
2023/01/11 01:14:27;;;;;;;;;;;3.60;99.90;;;;;;4998793;28;20393;-72
2023/01/11 01:16:58;;;;;;;;;;;3.60;99.90;;;;;;5022190;28;19929;-72
2023/01/11 01:19:28;;;;;;;;;;;3.70;99.90;;;;;;5020179;28;20691;-72
2023/01/11 01:21:58;;;;;;;;;;;3.70;99.90;;;;;;5002457;28;19973;-72
2023/01/11 01:24:27;;;;;;;;;;;3.70;99.90;;;;;;5006723;28;19933;-72
2023/01/11 01:26:57;;;;;;;;;;;3.70;99.90;;;;;;4994050;28;19980;-72
2023/01/11 01:29:25;;;;;;;;;;;3.70;99.90;;;;;;5016779;28;19936;-72
2023/01/11 01:31:54;;;;;;;;;;;3.80;99.90;;;;;;5015527;28;19973;-72
2023/01/11 01:34:22;;;;;;;;;;;3.80;99.90;;;;;;5006153;28;19925;-72
2023/01/11 01:36:52;;;;;;;;;;;3.80;99.90;;;;;;4999476;28;20016;-71
2023/01/11 01:39:20;;;;;;;;;;;3.70;99.90;;;;;;4996942;28;19936;-72
2023/01/11 01:41:48;;;;;;;;;;;3.80;99.90;;;;;;4999318;28;19926;-72
2023/01/11 01:44:35;;;;;;;;;;;3.80;99.90;;;;;;5012989;28;20610;-72
2023/01/11 01:47:04;;;;;;;;;;;3.70;99.90;;;;;;5008608;28;19926;-72
2023/01/11 01:49:32;;;;;;;;;;;3.80;99.90;;;;;;5019214;28;20253;-72
2023/01/11 01:52:02;;;;;;;;;;;3.80;99.90;;;;;;5016937;28;20315;-72
2023/01/11 01:54:34;;;;;;;;;;;3.80;99.90;;;;;;4995884;28;19925;-72
2023/01/11 01:57:04;;;;;;;;;;;3.80;99.90;;;;;;5017407;28;20422;-72
2023/01/11 01:59:33;;;;;;;;;;;3.80;99.90;;;;;;5015726;28;19926;-72
2023/01/11 02:02:02;;;;;;;;;;;3.80;99.90;;;;;;5001086;28;19929;-72
2023/01/11 02:04:36;;;;;;;;;;;3.80;99.90;;;;;;5013799;28;20000;-72
2023/01/11 02:07:15;;;;;;;;;;;3.80;99.90;;;;;;5010157;28;19933;-72
2023/01/11 02:10:04;;;;;;;;;;;3.70;99.90;;;;;;4997035;28;20380;-72
2023/01/11 02:12:55;;;;;;;;;;;3.80;99.90;;;;;;5006655;28;19926;-72
2023/01/11 02:15:23;;;;;;;;;;;3.90;99.90;;;;;;5021314;28;19940;-72
2023/01/11 02:17:52;;;;;;;;;;;3.90;99.90;;;;;;4994320;28;20369;-71
2023/01/11 02:20:20;;;;;;;;;;;3.90;99.90;;;;;;5015791;28;20257;-72
2023/01/11 02:23:07;;;;;;;;;;;4.00;99.90;;;;;;5017545;28;19926;-72
2023/01/11 02:25:54;;;;;;;;;;;4.00;99.90;;;;;;4999993;28;19925;-72
2023/01/11 02:28:26;;;;;;;;;;;4.10;99.90;;;;;;5019039;28;19929;-72
2023/01/11 02:31:00;;;;;;;;;;;4.20;99.90;;;;;;5013273;28;20023;-72
2023/01/11 02:33:47;;;;;;;;;;;4.30;99.90;;;;;;5017948;28;19981;-72
2023/01/11 02:36:16;;;;;;;;;;;4.30;99.90;;;;;;5013317;28;19965;-72
2023/01/11 02:38:46;;;;;;;;;;;4.40;99.90;;;;;;5009814;28;19929;-72
2023/01/11 02:45:00;;;;;;;;;;;4.50;99.90;;;;;;5000475;28;19932;-72
2023/01/11 02:47:17;;;;;;;;;;;4.50;99.90;;;;;;4999992;28;19926;-72
2023/01/11 02:49:51;;;;;;;;;;;4.60;99.90;;;;;;5017840;28;20359;-71
2023/01/11 02:52:20;;;;;;;;;;;4.70;99.90;;;;;;5014463;28;19929;-72
2023/01/11 02:54:53;;;;;;;;;;;4.80;99.90;;;;;;5009770;28;19933;-72
2023/01/11 02:57:23;;;;;;;;;;;4.80;99.90;;;;;;5007794;28;20016;-72
2023/01/11 02:59:53;;;;;;;;;;;4.90;99.90;;;;;;5011089;28;20025;-72
2023/01/11 03:02:22;;;;;;;;;;;5.00;99.90;;;;;;5035827;28;19995;-72
2023/01/11 03:04:50;;;;;;;;;;;5.10;99.90;;;;;;5020401;28;19926;-72
2023/01/11 03:07:28;;;;;;;;;;;5.10;99.90;;;;;;5002620;28;20392;-72
2023/01/11 03:09:59;;;;;;;;;;;5.20;99.90;;;;;;4998745;28;19926;-72
2023/01/11 03:12:50;;;;;;;;;;;5.20;99.90;;;;;;5004479;28;20320;-72
2023/01/11 03:15:22;;;;;;;;;;;5.30;99.90;;;;;;5015342;28;19932;-72
2023/01/11 03:17:56;;;;;;;;;;;5.30;99.90;;;;;;5022351;28;19926;-72
2023/01/11 03:20:28;;;;;;;;;;;5.40;99.90;;;;;;5001772;28;19929;-72
2023/01/11 03:22:56;;;;;;;;;;;5.50;99.90;;;;;;5022272;28;20416;-71
2023/01/11 03:25:39;;;;;;;;;;;5.60;99.90;;;;;;4985048;28;19935;-72
2023/01/11 03:28:15;;;;;;;;;;;5.60;99.90;;;;;;5021294;28;19987;-72
2023/01/11 03:30:51;;;;;;;;;;;5.60;99.90;;;;;;5004555;28;19936;-72
2023/01/11 03:33:23;;;;;;;;;;;5.60;99.90;;;;;;5003300;28;19933;-72
2023/01/11 03:35:51;;;;;;;;;;;5.60;99.90;;;;;;5005141;28;19940;-72
2023/01/11 03:38:24;;;;;;;;;;;5.60;99.90;;;;;;5005602;28;19961;-72
2023/01/11 03:40:55;;;;;;;;;;;5.60;99.90;;;;;;5014718;28;19933;-72
2023/01/11 03:43:24;;;;;;;;;;;5.70;99.90;;;;;;5014702;28;19930;-72
2023/01/11 03:46:01;;;;;;;;;;;5.70;99.90;;;;;;5010165;28;19969;-72
2023/01/11 03:48:43;;;;;;;;;;;5.60;99.90;;;;;;5007929;28;19930;-72
2023/01/11 03:51:13;;;;;;;;;;;5.60;99.90;;;;;;5016848;28;19926;-71
2023/01/11 03:53:43;;;;;;;;;;;5.60;99.90;;;;;;5016685;28;20651;-72
2023/01/11 03:56:13;;;;;;;;;;;5.60;99.90;;;;;;5007564;28;20020;-72
2023/01/11 03:58:41;;;;;;;;;;;5.60;99.90;;;;;;5019407;28;19971;-72
2023/01/11 04:01:10;;;;;;;;;;;5.70;99.90;;;;;;5015851;28;19925;-72
2023/01/11 04:03:38;;;;;;;;;;;5.70;99.90;;;;;;5020403;28;19985;-72
2023/01/11 04:06:09;;;;;;;;;;;5.70;99.90;;;;;;5007795;28;19930;-72
2023/01/11 04:08:37;;;;;;;;;;;5.80;99.90;;;;;;4992721;28;19936;-72
2023/01/11 04:11:06;;;;;;;;;;;5.80;99.90;;;;;;5011107;28;20017;-72
2023/01/11 04:13:34;;;;;;;;;;;5.70;99.90;;;;;;5022765;28;20332;-71
2023/01/11 04:16:02;;;;;;;;;;;5.70;99.90;;;;;;5018378;28;19999;-72
2023/01/11 04:18:31;;;;;;;;;;;5.70;99.90;;;;;;5018528;28;19926;-72
2023/01/11 04:21:00;;;;;;;;;;;5.70;99.90;;;;;;5015023;28;19960;-72
2023/01/11 04:23:28;;;;;;;;;;;5.70;99.90;;;;;;4988206;28;19926;-71
2023/01/11 04:25:56;;;;;;;;;;;5.70;99.90;;;;;;5002863;28;20443;-71
2023/01/11 04:28:25;;;;;;;;;;;5.70;99.90;;;;;;4997657;28;19929;-72
2023/01/11 04:30:53;;;;;;;;;;;5.70;99.90;;;;;;5019575;28;20820;-73
2023/01/11 04:33:22;;;;;;;;;;;5.70;99.90;;;;;;5015772;28;19937;-72
2023/01/11 04:35:50;;;;;;;;;;;5.70;99.90;;;;;;5013492;28;19926;-71
2023/01/11 04:38:19;;;;;;;;;;;5.70;99.90;;;;;;4997319;28;19929;-71
2023/01/11 04:40:47;;;;;;;;;;;5.70;99.90;;;;;;5002054;28;19933;-71
2023/01/11 04:43:16;;;;;;;;;;;5.70;99.90;;;;;;5006244;28;19979;-72
2023/01/11 04:45:45;;;;;;;;;;;5.80;99.90;;;;;;5017533;28;19948;-72
2023/01/11 04:48:14;;;;;;;;;;;5.80;99.90;;;;;;5001157;28;19933;-72
2023/01/11 04:50:42;;;;;;;;;;;5.80;99.90;;;;;;5000371;28;19926;-72
2023/01/11 04:53:11;;;;;;;;;;;5.80;99.90;;;;;;5009984;28;20388;-72
2023/01/11 04:55:40;;;;;;;;;;;5.80;99.90;;;;;;4978647;28;19930;-72
2023/01/11 04:58:08;;;;;;;;;;;5.80;99.90;;;;;;5010622;28;20020;-72
2023/01/11 05:00:36;;;;;;;;;;;5.80;99.90;;;;;;5001841;28;19932;-71
2023/01/11 05:03:05;;;;;;;;;;;5.90;99.90;;;;;;5025600;28;19944;-72
2023/01/11 05:05:33;;;;;;;;;;;6.00;99.90;;;;;;5008026;28;19979;-72
2023/01/11 05:08:02;;;;;;;;;;;6.00;99.90;;;;;;5009146;28;19936;-72
2023/01/11 05:10:31;;;;;;;;;;;6.00;99.90;;;;;;5000155;28;19926;-72
2023/01/11 05:12:59;;;;;;;;;;;6.00;99.90;;;;;;5000925;28;19936;-71
2023/01/11 05:15:28;;;;;;;;;;;6.00;99.90;;;;;;5001104;28;19953;-72
2023/01/11 05:17:56;;;;;;;;;;;6.10;99.90;;;;;;4993648;28;19925;-73
2023/01/11 05:20:24;;;;;;;;;;;6.10;99.90;;;;;;5010250;28;19929;-71
2023/01/11 05:22:53;;;;;;;;;;;6.10;99.90;;;;;;5017874;28;19936;-72
2023/01/11 05:25:21;;;;;;;;;;;6.10;99.90;;;;;;5008086;28;19956;-72
2023/01/11 05:27:49;;;;;;;;;;;6.10;99.90;;;;;;5019871;28;19937;-72
2023/01/11 05:30:18;;;;;;;;;;;6.10;99.90;;;;;;5006753;28;19930;-72
2023/01/11 05:32:54;;;;;;;;;;;6.20;99.90;;;;;;5018490;28;19952;-72
2023/01/11 05:35:24;;;;;;;;;;;6.20;99.90;;;;;;5005559;28;19925;-72
2023/01/11 05:37:52;;;;;;;;;;;6.30;99.90;;;;;;4992389;28;20064;-71
2023/01/11 05:40:21;;;;;;;;;;;6.30;99.90;;;;;;5002619;28;19926;-71
2023/01/11 05:42:50;;;;;;;;;;;6.20;99.90;;;;;;5004655;28;20028;-72
2023/01/11 05:45:27;;;;;;;;;;;6.20;99.90;;;;;;5006885;28;20387;-72
2023/01/11 05:47:56;;;;;;;;;;;6.30;99.90;;;;;;5007286;28;19929;-72
2023/01/11 05:50:28;;;;;;;;;;;6.30;99.90;;;;;;5022629;28;19929;-72
2023/01/11 05:52:57;;;;;;;;;;;6.20;99.90;;;;;;5021267;28;20124;-72
2023/01/11 05:55:26;;;;;;;;;;;6.30;99.90;;;;;;5017632;28;20301;-72
2023/01/11 05:57:54;;;;;;;;;;;6.30;99.90;;;;;;5041700;28;19948;-72
2023/01/11 06:00:23;;;;;;;;;;;6.30;99.90;;;;;;5042364;28;19933;-72
2023/01/11 06:02:52;;;;;;;;;;;6.20;99.90;;;;;;5027910;28;19948;-71
2023/01/11 06:05:22;;;;;;;;;;;6.20;99.90;;;;;;5024079;28;20277;-72
2023/01/11 06:07:50;;;;;;;;;;;6.20;99.90;;;;;;5016449;28;19926;-72
2023/01/11 06:10:18;;;;;;;;;;;6.30;99.90;;;;;;5001934;28;20609;-72
2023/01/11 06:12:50;;;;;;;;;;;6.30;99.90;;;;;;5021738;28;19934;-71
2023/01/11 06:15:19;;;;;;;;;;;6.30;99.90;;;;;;5016824;28;19940;-72
2023/01/11 06:17:47;;;;;;;;;;;6.30;99.90;;;;;;5002421;28;19992;-72
2023/01/11 06:20:16;;;;;;;;;;;6.20;99.90;;;;;;5011101;28;19932;-72
2023/01/11 06:22:45;;;;;;;;;;;6.20;99.90;;;;;;5021447;28;19980;-72
2023/01/11 06:25:13;;;;;;;;;;;6.20;99.90;;;;;;5003019;28;20272;-72
2023/01/11 06:27:43;;;;;;;;;;;6.20;99.90;;;;;;4992764;28;20013;-71
2023/01/11 06:30:12;;;;;;;;;;;6.20;99.90;;;;;;5013647;28;19929;-72
2023/01/11 06:32:40;;;;;;;;;;;6.20;99.90;;;;;;5000354;28;19933;-72
2023/01/11 06:35:08;;;;;;;;;;;6.20;99.90;;;;;;5016574;28;20521;-71
2023/01/11 06:37:36;;;;;;;;;;;6.20;99.90;;;;;;5000765;28;20016;-72
2023/01/11 06:40:05;;;;;;;;;;;6.20;99.90;;;;;;5015885;28;20404;-72
2023/01/11 06:42:33;;;;;;;;;;;6.20;99.90;;;;;;5001829;28;19937;-72
2023/01/11 06:45:02;;;;;;;;;;;6.20;99.90;;;;;;5023952;28;19929;-72
2023/01/11 06:47:32;;;;;;;;;;;6.10;99.90;;;;;;5023576;28;19929;-73
2023/01/11 06:50:05;;;;;;;;;;;6.10;99.90;;;;;;5001943;28;19980;-72
2023/01/11 06:52:33;;;;;;;;;;;6.10;99.90;;;;;;5001316;28;19930;-72
2023/01/11 06:55:03;;;;;;;;;;;6.10;99.90;;;;;;5020438;28;19925;-72
2023/01/11 06:57:32;;;;;;;;;;;6.20;99.90;;;;;;5020392;28;19965;-71
2023/01/11 07:00:16;;;;;;;;;;;6.30;99.90;;;;;;5026035;28;19930;-71
2023/01/11 07:02:47;;;;;;;;;;;6.30;99.90;;;;;;5017532;28;20406;-72
2023/01/11 07:05:18;;;;;;;;;;;6.30;99.90;;;;;;5019299;28;19933;-72
2023/01/11 07:07:47;;;;;;;;;;;6.30;99.90;;;;;;5007583;28;20444;-72
2023/01/11 07:10:16;;;;;;;;;;;6.30;99.90;;;;;;5010114;28;20032;-72
2023/01/11 07:12:45;;;;;;;;;;;6.40;99.90;;;;;;4997334;28;20456;-72
2023/01/11 07:15:20;;;;;;;;;;;6.40;99.90;;;;;;5024073;28;19930;-72
2023/01/11 07:17:55;;;;;;;;;;;6.50;99.90;;;;;;5012273;28;20016;-72
2023/01/11 07:20:24;;;;;;;;;;;6.50;99.90;;;;;;5001484;28;19934;-72
2023/01/11 07:22:55;;;;;;;;;;;6.60;99.90;;;;;;5004188;28;19925;-72
2023/01/11 07:25:26;;;;;;;;;;;6.60;99.90;;;;;;5005860;28;19926;-72
2023/01/11 07:27:56;;;;;;;;;;;6.50;99.90;;;;;;5021123;28;19925;-72
2023/01/11 07:30:28;;;;;;;;;;;6.60;99.90;;;;;;5016952;28;19926;-72
2023/01/11 07:32:57;;;;;;;;;;;6.70;99.90;;;;;;5022881;28;19930;-72
2023/01/11 07:35:25;;;;;;;;;;;6.70;99.90;;;;;;4998562;28;20028;-72
2023/01/11 07:38:01;;;;;;;;;;;6.70;99.90;;;;;;4991304;28;20397;-72
2023/01/11 07:40:29;;;;;;;;;;;6.70;99.90;;;;;;5013345;28;19940;-72
2023/01/11 07:43:17;;;;;;;;;;;6.70;99.90;;;;;;5019884;28;19925;-72
2023/01/11 07:46:05;;;;;;;;;;;6.60;99.90;;;;;;5018757;28;19972;-72
2023/01/11 07:48:34;;;;;;;;;;;6.70;99.90;;;;;;5016330;28;19933;-72
2023/01/11 07:51:04;;;;;;;;;;;6.70;99.90;;;;;;4996912;28;19925;-72
2023/01/11 07:53:33;;;;;;;;;;;6.80;99.90;;;;;;5004015;28;20020;-72
2023/01/11 07:56:02;;;;;;;;;;;6.80;99.90;;;;;;5027794;28;19932;-72
2023/01/11 07:58:32;;;;;;;;;;;6.80;99.90;;;;;;5010641;28;19936;-73
2023/01/11 08:01:04;;;;;;;;;;;6.80;99.90;;;;;;5016445;28;19925;-72
2023/01/11 08:03:35;;;;;;;;;;;6.80;99.90;;;;;;5011988;28;19929;-71
2023/01/11 08:06:04;;;;;;;;;;;6.80;99.90;;;;;;5008225;28;19926;-71
2023/01/11 08:08:33;;;;;;;;;;;6.80;99.90;;;;;;5002971;28;19972;-71
2023/01/11 08:16:40;;;;;;;;;;;6.90;99.90;;;;;;5019451;28;20601;-71
2023/01/11 08:19:09;;;;;;;;;;;7.00;99.90;;;;;;5024468;28;19929;-71
2023/01/11 08:21:39;;;;;;;;;;;7.00;99.90;;;;;;5021308;28;19925;-71
2023/01/11 08:24:08;;;;;;;;;;;7.00;99.90;;;;;;5021383;28;19925;-72
2023/01/11 08:26:47;;;;;;;;;;;7.00;99.90;;;;;;5015645;28;19942;-72
2023/01/11 08:29:16;;;;;;;;;;;7.20;99.90;;;;;;5018448;28;20016;-72
2023/01/11 08:31:53;;;;;;;;;;;7.20;99.90;;;;;;5006419;28;19965;-72
2023/01/11 08:34:20;;;;;;;;;;;7.30;99.90;;;;;;5008120;28;20277;-71
2023/01/11 08:36:51;;;;;;;;;;;7.30;99.90;;;;;;5003308;28;19930;-72
2023/01/11 08:39:20;;;;;;;;;;;7.40;99.90;;;;;;5003192;28;20264;-72
2023/01/11 08:42:11;;;;;;;;;;;7.40;99.90;;;;;;5004366;28;19914;-72
2023/01/11 08:44:40;;;;;;;;;;;7.50;99.90;;;;;;4998483;28;19933;-72
2023/01/11 08:47:09;;;;;;;;;;;7.60;99.90;;;;;;5010105;28;19926;-72
2023/01/11 08:49:41;;;;;;;;;;;7.60;99.90;;;;;;5016158;28;20015;-72
2023/01/11 08:52:13;;;;;;;;;;;7.70;99.90;;;;;;4999292;28;19933;-72
2023/01/11 08:54:43;;;;;;;;;;;7.70;99.90;;;;;;5029434;28;19925;-72
2023/01/11 08:57:11;;;;;;;;;;;7.80;99.90;;;;;;5033705;28;19929;-72
2023/01/11 08:59:40;;;;;;;;;;;7.80;99.90;;;;;;5015484;28;19930;-72
2023/01/11 09:02:13;;;;;;;;;;;7.80;99.90;;;;;;5001053;28;21244;-72
2023/01/11 09:04:41;;;;;;;;;;;7.90;99.90;;;;;;4996126;28;20352;-72
2023/01/11 09:07:11;;;;;;;;;;;7.90;99.90;;;;;;4996759;28;19965;-72
2023/01/11 09:09:40;;;;;;;;;;;7.80;99.90;;;;;;5008465;28;20288;-72
2023/01/11 09:12:09;;;;;;;;;;;7.90;99.90;;;;;;5000627;28;19933;-73
2023/01/11 09:14:40;;;;;;;;;;;7.90;99.90;;;;;;5018856;28;19926;-72
2023/01/11 09:17:09;;;;;;;;;;;7.90;99.90;;;;;;5017690;28;20008;-72
2023/01/11 09:19:41;;;;;;;;;;;7.90;99.90;;;;;;5018138;28;20331;-71
2023/01/11 09:22:15;;;;;;;;;;;8.00;99.90;;;;;;5003974;28;20388;-71
2023/01/11 09:24:44;;;;;;;;;;;8.00;99.90;;;;;;5006029;28;19932;-72
2023/01/11 09:27:13;;;;;;;;;;;8.10;99.90;;;;;;5024707;28;19936;-72
2023/01/11 09:29:43;;;;;;;;;;;8.10;99.90;;;;;;5021508;28;19932;-72
2023/01/11 09:32:16;;;;;;;;;;;8.10;99.90;;;;;;5003645;28;19936;-72
2023/01/11 09:34:48;;;;;;;;;;;8.10;99.90;;;;;;4998706;28;19926;-72
2023/01/11 09:37:21;;;;;;;;;;;8.10;99.90;;;;;;5000925;28;20131;-72
2023/01/11 09:39:51;;;;;;;;;;;8.20;99.90;;;;;;5022439;28;19937;-72
2023/01/11 09:42:38;;;;;;;;;;;8.30;99.90;;;;;;5013371;28;20035;-72
2023/01/11 09:45:21;;;;;;;;;;;8.40;99.90;;;;;;5001188;28;20025;-72
2023/01/11 09:48:03;;;;;;;;;;;8.40;99.90;;;;;;5025336;28;20217;-72
2023/01/11 09:50:32;;;;;;;;;;;8.50;99.90;;;;;;5013766;28;19929;-72
2023/01/11 09:53:07;;;;;;;;;;;8.50;99.90;;;;;;5000353;28;19933;-72
2023/01/11 09:55:53;;;;;;;;;;;8.50;99.90;;;;;;5000168;28;20024;-72
2023/01/11 09:58:37;;;;;;;;;;;8.60;99.90;;;;;;5018956;28;19930;-72
2023/01/11 10:01:29;;;;;;;;;;;8.60;99.90;;;;;;4997779;28;19926;-72
2023/01/11 10:04:02;;;;;;;;;;;8.60;99.90;;;;;;5005966;28;20380;-72
2023/01/11 10:06:44;;;;;;;;;;;8.60;99.90;;;;;;5017321;28;20020;-72
2023/01/11 10:09:31;;;;;;;;;;;8.60;99.90;;;;;;5006643;28;19926;-72
2023/01/11 10:12:20;;;;;;;;;;;8.60;99.90;;;;;;5007392;28;19932;-72
2023/01/11 10:15:03;;;;;;;;;;;8.70;99.90;;;;;;5001577;28;20017;-72
2023/01/11 10:17:46;;;;;;;;;;;8.70;99.90;;;;;;5008555;28;20016;-71
2023/01/11 10:20:23;;;;;;;;;;;8.80;99.90;;;;;;5021927;28;19926;-72
2023/01/11 10:22:55;;;;;;;;;;;8.80;99.90;;;;;;5011900;28;19925;-72
2023/01/11 10:25:32;;;;;;;;;;;8.80;99.90;;;;;;5012599;28;19929;-72
2023/01/11 10:28:05;;;;;;;;;;;8.80;99.90;;;;;;5018939;28;19926;-72
2023/01/11 10:36:56;;;;;;;;;;;8.80;99.90;;;;;;5013592;28;19930;-72
2023/01/11 10:39:53;;;;;;;;;;;8.90;99.90;;;;;;5011052;28;19926;-72
2023/01/11 10:42:24;;;;;;;;;;;8.90;99.90;;;;;;5019489;28;20023;-72
2023/01/11 10:45:11;;;;;;;;;;;8.80;99.90;;;;;;5004649;28;20316;-72
2023/01/11 10:48:09;;;;;;;;;;;8.80;99.90;;;;;;5020456;28;19956;-72
2023/01/11 10:50:46;;;;;;;;;;;8.80;99.90;;;;;;4986230;28;19930;-72
2023/01/11 10:53:37;;;;;;;;;;;8.80;99.90;;;;;;5018539;28;20028;-72
2023/01/11 10:56:06;;;;;;;;;;;8.80;99.90;;;;;;5001033;28;19987;-72
2023/01/11 10:58:45;;;;;;;;;;;8.80;99.90;;;;;;5006780;28;19929;-72
2023/01/11 11:01:23;;;;;;;;;;;8.80;99.90;;;;;;5013841;28;20362;-72
2023/01/11 11:04:16;;;;;;;;;;;8.70;99.90;;;;;;5018554;28;19984;-72
2023/01/11 11:07:04;;;;;;;;;;;8.70;99.90;;;;;;5000353;28;19933;-72
2023/01/11 11:09:37;;;;;;;;;;;8.70;99.90;;;;;;5010938;28;20016;-72
2023/01/11 11:12:06;;;;;;;;;;;8.70;99.90;;;;;;5022474;28;20357;-72
2023/01/11 11:14:46;;;;;;;;;;;8.70;99.90;;;;;;5020387;28;20016;-72
2023/01/11 11:17:50;;;;;;;;;;;8.80;99.90;;;;;;5003429;28;19925;-72
2023/01/11 11:20:21;;;;;;;;;;;8.80;99.90;;;;;;5005447;28;19925;-72
2023/01/11 11:22:51;;;;;;;;;;;8.80;99.90;;;;;;5017713;28;19932;-72
2023/01/11 11:25:49;;;;;;;;;;;8.80;99.90;;;;;;5007242;28;19929;-72
2023/01/11 11:28:26;;;;;;;;;;;8.80;99.90;;;;;;5007382;28;19929;-72
2023/01/11 11:30:58;;;;;;;;;;;8.80;99.90;;;;;;5021475;28;19949;-72
2023/01/11 11:33:33;;;;;;;;;;;8.90;99.90;;;;;;5006010;28;19930;-72
2023/01/11 11:36:10;;;;;;;;;;;8.90;99.90;;;;;;5008414;28;19925;-72
2023/01/11 11:38:44;;;;;;;;;;;9.00;99.90;;;;;;5004678;28;19933;-72
2023/01/11 11:41:15;;;;;;;;;;;9.00;99.90;;;;;;4998735;28;20277;-72
2023/01/11 11:43:50;;;;;;;;;;;9.10;99.90;;;;;;5006701;28;19964;-72
2023/01/11 11:46:24;;;;;;;;;;;9.10;99.90;;;;;;5006038;28;19957;-72
2023/01/11 11:49:16;;;;;;;;;;;9.10;99.90;;;;;;5004666;28;19925;-72
2023/01/11 11:51:46;;;;;;;;;;;9.10;99.90;;;;;;5005736;28;19930;-71
2023/01/11 11:54:18;;;;;;;;;;;9.10;99.90;;;;;;5023547;28;19941;-72
2023/01/11 11:56:48;;;;;;;;;;;9.10;99.90;;;;;;5006690;28;19929;-72
2023/01/11 11:59:19;;;;;;;;;;;9.10;99.90;;;;;;5009330;28;19936;-72
2023/01/11 12:01:56;;;;;;;;;;;9.10;99.90;;;;;;5014932;28;19926;-72
2023/01/11 12:04:46;;;;;;;;;;;9.00;99.90;;;;;;5003181;28;20203;-72
2023/01/11 12:07:18;;;;;;;;;;;9.00;99.90;;;;;;4991565;28;20661;-72
2023/01/11 12:09:49;;;;;;;;;;;9.00;99.90;;;;;;5002545;28;20602;-72
2023/01/11 12:12:21;;;;;;;;;;;8.90;99.90;;;;;;5021524;28;19933;-72
2023/01/11 12:15:11;;;;;;;;;;;8.90;99.90;;;;;;4989723;28;19925;-73
2023/01/11 12:17:44;;;;;;;;;;;8.90;99.90;;;;;;5021755;28;19929;-72
2023/01/11 12:20:26;;;;;;;;;;;8.90;99.90;;;;;;4987609;28;20008;-73
2023/01/11 12:23:15;;;;;;;;;;;8.90;99.90;;;;;;5019196;28;19925;-72
2023/01/11 12:25:50;;;;;;;;;;;8.90;99.90;;;;;;5006255;28;20028;-72
2023/01/11 12:28:52;;;;;;;;;;;9.00;99.90;;;;;;5126171;27;20290;-71
2023/01/11 12:31:41;;;;;;;;;;;9.00;99.90;;;;;;5101335;28;20046;-71
2023/01/11 12:34:16;;;;;;;;;;;9.10;99.90;;;;;;5096249;28;20018;-71
2023/01/11 12:37:08;;;;;;;;;;;9.10;99.90;;;;;;5102990;28;19924;-72
2023/01/11 12:39:57;;;;;;;;;;;9.20;99.90;;;;;;5064175;28;19925;-72
2023/01/11 12:42:50;;;;;;;;;;;9.20;99.90;;;;;;5087074;28;19924;-72
2023/01/11 12:45:26;;;;;;;;;;;9.20;99.90;;;;;;5102014;28;19932;-71
2023/01/11 12:48:01;;;;;;;;;;;9.20;99.90;;;;;;5097039;28;20039;-71
2023/01/11 12:50:36;;;;;;;;;;;9.20;99.90;;;;;;5082447;28;19924;-71
2023/01/11 12:53:24;;;;;;;;;;;9.20;99.90;;;;;;5100489;28;20481;-72
2023/01/11 12:55:53;;;;;;;;;;;9.20;99.90;;;;;;5097295;28;19924;-71
2023/01/11 12:58:43;;;;;;;;;;;9.30;99.90;;;;;;5095514;28;19925;-71
2023/01/11 13:01:35;;;;;;;;;;;9.30;99.90;;;;;;5105357;28;20283;-72
2023/01/11 13:04:23;;;;;;;;;;;9.20;99.90;;;;;;5093875;27;20008;-71
2023/01/11 13:06:57;;;;;;;;;;;9.20;99.90;;;;;;5100949;28;19959;-71
2023/01/11 13:09:44;;;;;;;;;;;9.10;99.90;;;;;;5103137;28;19924;-71
2023/01/11 13:12:31;;;;;;;;;;;9.10;99.90;;;;;;5101852;28;19927;-72
2023/01/11 13:15:06;;;;;;;;;;;9.10;99.90;;;;;;5094313;28;20088;-72
2023/01/11 13:17:37;;;;;;;;;;;9.00;99.90;;;;;;5102021;28;19935;-72
2023/01/11 13:20:13;;;;;;;;;;;9.00;99.90;;;;;;5105046;28;20015;-72
2023/01/11 13:22:46;;;;;;;;;;;8.90;99.90;;;;;;5095839;28;20298;-72
2023/01/11 13:25:19;;;;;;;;;;;8.90;99.90;;;;;;5085479;28;20019;-72
2023/01/11 13:27:49;;;;;;;;;;;8.80;99.90;;;;;;5081798;28;20017;-72
2023/01/11 13:30:19;;;;;;;;;;;8.80;99.90;;;;;;5100577;28;19928;-72
2023/01/11 13:32:52;;;;;;;;;;;8.70;99.90;;;;;;5083448;28;20060;-72
2023/01/11 13:35:27;;;;;;;;;;;8.60;99.90;;;;;;5083165;28;19938;-72
2023/01/11 13:38:10;;;;;;;;;;;8.60;99.90;;;;;;5084216;28;20379;-71
2023/01/11 13:40:45;;;;;;;;;;;8.60;99.90;;;;;;5082238;28;19925;-71
2023/01/11 13:43:19;;;;;;;;;;;8.60;99.90;;;;;;5072533;28;20398;-72
2023/01/11 13:45:55;;;;;;;;;;;8.60;99.90;;;;;;5094118;28;19931;-72
2023/01/11 13:48:32;;;;;;;;;;;8.60;99.90;;;;;;5077766;28;19928;-71
2023/01/11 13:51:05;;;;;;;;;;;8.60;99.90;;;;;;5083169;28;20302;-72
2023/01/11 13:53:38;;;;;;;;;;;8.60;99.90;;;;;;5076078;28;19967;-72
2023/01/11 13:56:12;;;;;;;;;;;8.60;99.90;;;;;;5093673;28;20314;-72
2023/01/11 13:58:42;;;;;;;;;;;8.60;99.90;;;;;;5073586;28;19924;-71
2023/01/11 14:01:14;;;;;;;;;;;8.50;99.90;;;;;;5086311;28;19935;-72
2023/01/11 14:03:51;;;;;;;;;;;8.50;99.90;;;;;;5074037;28;19978;-72
2023/01/11 14:06:30;;;;;;;;;;;8.40;99.90;;;;;;5090751;28;19951;-71
2023/01/11 14:09:23;;;;;;;;;;;8.30;99.90;;;;;;5091667;28;19928;-72
2023/01/11 14:12:13;;;;;;;;;;;8.30;99.90;;;;;;5090148;28;19924;-71
2023/01/11 14:15:00;;;;;;;;;;;8.30;99.90;;;;;;5086954;28;20012;-72
2023/01/11 14:17:57;;;;;;;;;;;8.20;99.90;;;;;;5094239;28;19928;-72
2023/01/11 14:20:27;;;;;;;;;;;8.20;99.90;;;;;;5088583;28;19939;-72
2023/01/11 14:23:03;;;;;;;;;;;8.20;99.90;;;;;;5070105;28;19924;-72
2023/01/11 14:25:37;;;;;;;;;;;8.20;99.90;;;;;;5075994;28;20205;-71
2023/01/11 14:28:07;;;;;;;;;;;8.20;99.90;;;;;;5074165;28;19952;-72
2023/01/11 14:30:37;;;;;;;;;;;8.10;99.90;;;;;;5070033;28;19930;-72
2023/01/11 14:33:05;;;;;;;;;;;8.10;99.90;;;;;;5087537;28;20690;-71
2023/01/11 14:35:41;;;;;;;;;;;8.10;99.90;;;;;;5073685;28;20001;-71
2023/01/11 14:38:28;;;;;;;;;;;8.00;99.90;;;;;;5084915;28;19928;-72
2023/01/11 14:41:05;;;;;;;;;;;8.00;99.90;;;;;;5099605;28;20412;-72
2023/01/11 14:43:49;;;;;;;;;;;8.00;99.90;;;;;;5104498;28;19928;-71
2023/01/11 14:46:34;;;;;;;;;;;8.00;99.90;;;;;;5086448;28;20346;-72
2023/01/11 14:49:15;;;;;;;;;;;8.00;99.90;;;;;;5090900;28;19924;-72
2023/01/11 14:51:56;;;;;;;;;;;8.10;99.90;;;;;;5104939;28;19928;-71
2023/01/11 14:54:33;;;;;;;;;;;8.00;99.90;;;;;;5085171;28;20306;-72
2023/01/11 14:57:04;;;;;;;;;;;8.00;99.90;;;;;;5088243;28;19951;-72
2023/01/11 14:59:38;;;;;;;;;;;7.90;99.90;;;;;;5086634;28;19928;-72
2023/01/11 15:02:12;;;;;;;;;;;7.90;99.90;;;;;;5086948;28;19928;-72
2023/01/11 15:04:53;;;;;;;;;;;7.80;99.90;;;;;;5086282;28;20055;-71
2023/01/11 15:10:27;;;;;;;;;;;7.80;99.90;;;;;;5086172;28;19924;-72
2023/01/11 15:12:57;;;;;;;;;;;7.80;99.90;;;;;;5084506;28;19924;-72
2023/01/11 15:18:22;;;;;;;;;;;7.70;99.90;;;;;;5085720;28;20299;-71
2023/01/11 15:20:55;;;;;;;;;;;7.70;99.90;;;;;;5067686;28;20597;-72
2023/01/11 15:23:25;;;;;;;;;;;7.70;99.90;;;;;;5087236;28;19977;-72
2023/01/11 15:26:05;;;;;;;;;;;7.70;99.90;;;;;;5068062;28;20294;-70
2023/01/11 15:28:40;;;;;;;;;;;7.70;99.90;;;;;;5093597;28;19932;-71
2023/01/11 15:31:27;;;;;;;;;;;7.60;99.90;;;;;;5085223;28;19928;-71
2023/01/11 15:34:00;;;;;;;;;;;7.60;99.90;;;;;;5087180;28;19924;-73
2023/01/11 15:36:47;;;;;;;;;;;7.60;99.90;;;;;;5088316;28;20387;-72
2023/01/11 15:39:30;;;;;;;;;;;7.60;99.90;;;;;;5070714;28;19951;-70